Time,TemperatureF,DewpointF,PressureIn,WindDirection,WindDirectionDegrees,WindSpeedMPH,WindSpeedGustMPH,Humidity,HourlyPrecipIn,Conditions,Clouds,dailyrainin,SoftwareType,DateUTC
2013-06-12 00:02:00,66.9,17.7,29.54,WNW,285,10.4,10.4,15,0.00,CLR,,0.00,WeatherDisplay:10.37,2013-06-12 06:02:00,
2013-06-12 00:07:00,66.9,17.7,29.54,WNW,283,12.7,12.7,15,0.00,CLR,,0.00,WeatherDisplay:10.37,2013-06-12 06:07:00,
2013-06-12 00:12:00,66.9,17.7,29.54,WNW,288,12.7,12.7,15,0.00,CLR,,0.00,WeatherDisplay:10.37,2013-06-12 06:12:00,
2013-06-12 00:17:00,66.9,17.7,29.54,West,265,6.0,6.0,15,0.00,CLR,,0.00,WeatherDisplay:10.37,2013-06-12 06:17:00,
2013-06-12 00:22:00,66.8,17.6,29.54,West,266,10.0,10.6,15,0.00,CLR,,0.00,WeatherDisplay:10.37,2013-06-12 06:22:00,
2013-06-12 00:27:00,66.8,17.6,29.54,NW,304,10.4,10.4,15,0.00,CLR,,0.00,WeatherDisplay:10.37,2013-06-12 06:27:00,
2013-06-12 00:32:00,66.8,17.6,29.55,NW,316,17.3,17.3,15,0.00,CLR,,0.00,WeatherDisplay:10.37,2013-06-12 06:32:00,
2013-06-12 00:37:00,66.8,17.6,29.55,West,262,8.1,8.1,15,0.00,CLR,,0.00,WeatherDisplay:10.37,2013-06-12 06:37:00,
2013-06-12 00:42:00,66.9,17.7,29.55,WSW,256,11.5,11.5,15,0.00,CLR,,0.00,WeatherDisplay:10.37,2013-06-12 06:42:00,
2013-06-12 00:47:00,66.8,16.0,29.56,West,259,8.0,8.0,14,0.00,CLR,,0.00,WeatherDisplay:10.37,2013-06-12 06:47:00,
2013-06-12 00:52:00,66.8,16.0,29.56,West,280,5.8,5.8,14,0.00,CLR,,0.00,WeatherDisplay:10.37,2013-06-12 06:52:00,
2013-06-12 00:57:00,66.6,15.9,29.56,West,262,8.1,8.1,14,0.00,CLR,,0.00,WeatherDisplay:10.37,2013-06-12 06:57:00,
2013-06-12 01:02:00,66.3,15.6,29.58,WSW,244,8.1,8.1,14,0.00,CLR,,0.00,WeatherDisplay:10.37,2013-06-12 07:02:00,
2013-06-12 01:07:00,66.6,15.9,29.58,West,275,13.8,13.8,14,0.00,CLR,,0.00,WeatherDisplay:10.37,2013-06-12 07:07:00,
2013-06-12 01:12:00,66.6,15.9,29.58,WNW,285,8.1,8.1,14,0.00,CLR,,0.00,WeatherDisplay:10.37,2013-06-12 07:12:00,
2013-06-12 01:17:00,66.6,15.9,29.58,WSW,248,12.7,12.7,14,0.00,CLR,,0.00,WeatherDisplay:10.37,2013-06-12 07:17:00,
2013-06-12 01:22:00,66.8,16.0,29.58,WNW,288,12.0,12.0,14,0.00,CLR,,0.00,WeatherDisplay:10.37,2013-06-12 07:22:00,
2013-06-12 01:27:00,66.6,15.9,29.58,WSW,249,13.8,13.8,14,0.00,CLR,,0.00,WeatherDisplay:10.37,2013-06-12 07:27:00,
2013-06-12 01:32:00,66.4,15.7,29.59,West,276,10.4,10.4,14,0.00,CLR,,0.00,WeatherDisplay:10.37,2013-06-12 07:32:00,
2013-06-12 01:37:00,66.1,15.5,29.59,West,261,8.1,8.1,14,0.00,CLR,,0.00,WeatherDisplay:10.37,2013-06-12 07:37:00,
2013-06-12 01:42:00,65.6,16.6,29.59,NNW,330,5.0,5.0,15,0.00,CLR,,0.00,WeatherDisplay:10.37,2013-06-12 07:42:00,
2013-06-12 01:47:00,65.2,16.3,29.59,WNW,288,3.5,3.5,15,0.00,CLR,,0.00,WeatherDisplay:10.37,2013-06-12 07:47:00,
2013-06-12 01:52:00,64.7,15.9,29.59,WNW,292,1.2,1.2,15,0.00,CLR,,0.00,WeatherDisplay:10.37,2013-06-12 07:52:00,
2013-06-12 01:57:00,64.7,15.9,29.59,West,269,4.6,4.6,15,0.00,CLR,,0.00,WeatherDisplay:10.37,2013-06-12 07:57:00,
2013-06-12 02:02:00,64.7,15.9,29.61,WNW,293,6.0,6.0,15,0.00,CLR,,0.00,WeatherDisplay:10.37,2013-06-12 08:02:00,
2013-06-12 02:07:00,64.0,15.4,29.61,WSW,244,3.5,3.5,15,0.00,CLR,,0.00,WeatherDisplay:10.37,2013-06-12 08:07:00,
2013-06-12 02:12:00,64.0,15.4,29.61,WSW,244,3.5,3.5,15,0.00,CLR,,0.00,WeatherDisplay:10.37,2013-06-12 08:12:00,
2013-06-12 02:17:00,63.7,15.1,29.60,WNW,282,5.8,5.8,15,0.00,CLR,,0.00,WeatherDisplay:10.37,2013-06-12 08:17:00,
2013-06-12 02:22:00,63.5,15.0,29.60,WNW,283,1.2,1.2,15,0.00,CLR,,0.00,WeatherDisplay:10.37,2013-06-12 08:22:00,
2013-06-12 02:27:00,62.9,16.0,29.60,WNW,292,2.0,2.0,16,0.00,CLR,,0.00,WeatherDisplay:10.37,2013-06-12 08:27:00,
2013-06-12 02:32:00,62.6,15.7,29.62,WNW,302,6.0,6.0,16,0.00,CLR,,0.00,WeatherDisplay:10.37,2013-06-12 08:32:00,
2013-06-12 02:37:00,62.4,15.6,29.62,WNW,297,4.6,4.6,16,0.00,CLR,,0.00,WeatherDisplay:10.37,2013-06-12 08:37:00,
2013-06-12 02:42:00,62.6,15.7,29.62,WNW,289,6.9,6.9,16,0.00,CLR,,0.00,WeatherDisplay:10.37,2013-06-12 08:42:00,
2013-06-12 02:47:00,62.0,18.0,29.62,WNW,289,1.0,1.0,18,0.00,CLR,,0.00,WeatherDisplay:10.37,2013-06-12 08:47:00,
2013-06-12 02:52:00,60.2,17.7,29.62,ENE,70,3.5,3.5,19,0.00,CLR,,0.00,WeatherDisplay:10.37,2013-06-12 08:52:00,
2013-06-12 02:57:00,58.4,18.6,29.62,ENE,66,2.3,2.3,21,0.00,CLR,,0.00,WeatherDisplay:10.37,2013-06-12 08:57:00,
2013-06-12 03:02:00,57.3,17.6,29.66,ENE,66,2.0,2.0,21,0.00,CLR,,0.00,WeatherDisplay:10.37,2013-06-12 09:02:00,
2013-06-12 03:07:00,56.3,17.9,29.66,NE,48,2.3,2.3,22,0.00,CLR,,0.00,WeatherDisplay:10.37,2013-06-12 09:07:00,
2013-06-12 03:12:00,55.6,17.3,29.66,NE,48,2.3,2.3,22,0.00,CLR,,0.00,WeatherDisplay:10.37,2013-06-12 09:12:00,
2013-06-12 03:17:00,55.1,17.9,29.69,NE,48,3.5,3.5,23,0.00,CLR,,0.00,WeatherDisplay:10.37,2013-06-12 09:17:00,
2013-06-12 03:22:00,54.7,16.5,29.69,NE,48,3.0,3.0,22,0.00,CLR,,0.00,WeatherDisplay:10.37,2013-06-12 09:22:00,
2013-06-12 03:27:00,54.2,17.1,29.69,NNW,344,3.5,3.5,23,0.00,CLR,,0.00,WeatherDisplay:10.37,2013-06-12 09:27:00,
2013-06-12 03:32:00,53.9,16.9,29.71,NNW,344,0.0,0.2,23,0.00,CLR,,0.00,WeatherDisplay:10.37,2013-06-12 09:32:00,
2013-06-12 03:37:00,53.6,17.6,29.71,NNW,344,2.3,2.3,24,0.00,CLR,,0.00,WeatherDisplay:10.37,2013-06-12 09:37:00,
2013-06-12 03:42:00,53.2,17.3,29.71,NNW,344,0.0,0.0,24,0.00,CLR,,0.00,WeatherDisplay:10.37,2013-06-12 09:42:00,
2013-06-12 03:47:00,52.9,17.0,29.71,NNW,344,0.0,0.0,24,0.00,CLR,,0.00,WeatherDisplay:10.37,2013-06-12 09:47:00,
2013-06-12 03:52:00,52.9,18.0,29.71,North,351,4.6,4.6,25,0.00,CLR,,0.00,WeatherDisplay:10.37,2013-06-12 09:52:00,
2013-06-12 03:57:00,52.6,17.7,29.71,North,350,0.0,0.1,25,0.00,CLR,,0.00,WeatherDisplay:10.37,2013-06-12 09:57:00,
2013-06-12 04:02:00,52.3,17.5,29.72,North,2,3.5,3.5,25,0.00,CLR,,0.00,WeatherDisplay:10.37,2013-06-12 10:02:00,
2013-06-12 04:07:00,52.0,17.2,29.72,North,2,4.6,4.6,25,0.00,CLR,,0.00,WeatherDisplay:10.37,2013-06-12 10:07:00,
2013-06-12 04:12:00,51.6,17.8,29.72,North,2,0.0,0.0,26,0.00,CLR,,0.00,WeatherDisplay:10.37,2013-06-12 10:12:00,
2013-06-12 04:17:00,51.3,18.4,29.75,North,2,3.5,3.5,27,0.00,CLR,,0.00,WeatherDisplay:10.37,2013-06-12 10:17:00,
2013-06-12 04:22:00,50.8,18.0,29.75,NNE,15,3.5,3.5,27,0.00,CLR,,0.00,WeatherDisplay:10.37,2013-06-12 10:22:00,
2013-06-12 04:27:00,50.4,18.5,29.75,NNE,15,1.0,1.0,28,0.00,CLR,,0.00,WeatherDisplay:10.37,2013-06-12 10:27:00,
2013-06-12 04:32:00,49.9,18.0,29.77,NNE,26,1.2,1.2,28,0.00,CLR,,0.00,WeatherDisplay:10.37,2013-06-12 10:32:00,
2013-06-12 04:37:00,49.4,18.4,29.77,NW,309,2.3,2.4,29,0.00,CLR,,0.00,WeatherDisplay:10.37,2013-06-12 10:37:00,
2013-06-12 04:42:00,48.9,18.0,29.77,NW,310,2.3,2.3,29,0.00,CLR,,0.00,WeatherDisplay:10.37,2013-06-12 10:42:00,
2013-06-12 04:47:00,48.8,17.1,29.78,NW,310,1.2,1.2,28,0.00,CLR,,0.00,WeatherDisplay:10.37,2013-06-12 10:47:00,
2013-06-12 04:52:00,48.5,17.6,29.78,NW,310,2.3,2.3,29,0.00,CLR,,0.00,WeatherDisplay:10.37,2013-06-12 10:52:00,
2013-06-12 04:57:00,48.0,18.8,29.78,NW,310,0.0,0.0,31,0.00,CLR,,0.00,WeatherDisplay:10.37,2013-06-12 10:57:00,
2013-06-12 05:02:00,47.7,17.7,29.80,NW,310,2.3,2.3,30,0.00,CLR,,0.00,WeatherDisplay:10.37,2013-06-12 11:02:00,
2013-06-12 05:07:00,47.6,17.6,29.80,NW,310,2.0,2.0,30,0.00,CLR,,0.00,WeatherDisplay:10.37,2013-06-12 11:07:00,
2013-06-12 05:12:00,47.6,17.6,29.80,NW,310,2.0,2.0,30,0.00,CLR,,0.00,WeatherDisplay:10.37,2013-06-12 11:12:00,
2013-06-12 05:17:00,47.4,18.2,29.80,NW,310,2.0,2.0,31,0.00,CLR,,0.00,WeatherDisplay:10.37,2013-06-12 11:17:00,
2013-06-12 05:22:00,47.3,18.1,29.80,NW,310,0.0,0.0,31,0.00,CLR,,0.00,WeatherDisplay:10.37,2013-06-12 11:22:00,
2013-06-12 05:27:00,47.1,18.0,29.80,NW,310,0.0,0.6,31,0.00,CLR,,0.00,WeatherDisplay:10.37,2013-06-12 11:27:00,
2013-06-12 05:32:00,47.1,18.0,29.83,NW,310,0.0,0.1,31,0.00,CLR,,0.00,WeatherDisplay:10.37,2013-06-12 11:32:00,
2013-06-12 05:37:00,47.1,18.0,29.83,NW,310,0.0,0.0,31,0.00,CLR,,0.00,WeatherDisplay:10.37,2013-06-12 11:37:00,
2013-06-12 05:42:00,46.8,18.5,29.83,NW,310,0.0,0.0,32,0.00,CLR,,0.00,WeatherDisplay:10.37,2013-06-12 11:42:00,
2013-06-12 05:47:00,46.7,19.1,29.84,NW,310,3.0,3.0,33,0.00,CLR,,0.00,WeatherDisplay:10.37,2013-06-12 11:47:00,
2013-06-12 05:52:00,46.5,18.9,29.84,NW,310,0.0,0.0,33,0.00,CLR,,0.00,WeatherDisplay:10.37,2013-06-12 11:52:00,
2013-06-12 05:57:00,46.2,20.0,29.84,NW,310,0.0,0.0,35,0.00,CLR,,0.00,WeatherDisplay:10.37,2013-06-12 11:57:00,
2013-06-12 06:02:00,46.1,19.9,29.84,NW,310,0.0,0.0,35,0.00,CLR,,0.00,WeatherDisplay:10.37,2013-06-12 12:02:00,
2013-06-12 06:07:00,46.2,19.3,29.84,NW,310,2.3,2.3,34,0.00,CLR,,0.00,WeatherDisplay:10.37,2013-06-12 12:07:00,
2013-06-12 06:12:00,46.4,22.1,29.84,NW,310,2.3,2.3,38,0.00,CLR,,0.00,WeatherDisplay:10.37,2013-06-12 12:12:00,
2013-06-12 06:17:00,46.5,21.6,29.86,NW,310,1.2,0.0,37,0.00,CLR,,0.00,WeatherDisplay:10.37,2013-06-12 12:17:00,
2013-06-12 06:22:00,46.7,22.4,29.86,NW,310,0.0,0.0,38,0.00,CLR,,0.00,WeatherDisplay:10.37,2013-06-12 12:22:00,
2013-06-12 06:27:00,47.3,22.9,29.86,NW,310,0.0,0.0,38,0.00,CLR,,0.00,WeatherDisplay:10.37,2013-06-12 12:27:00,
2013-06-12 06:32:00,48.2,23.7,29.85,NW,310,0.0,0.0,38,0.00,CLR,,0.00,WeatherDisplay:10.37,2013-06-12 12:32:00,
2013-06-12 06:37:00,49.5,22.9,29.85,NW,310,0.0,0.0,35,0.00,CLR,,0.00,WeatherDisplay:10.37,2013-06-12 12:37:00,
2013-06-12 06:42:00,50.8,22.0,29.85,NW,310,0.0,0.0,32,0.00,CLR,,0.00,WeatherDisplay:10.37,2013-06-12 12:42:00,
2013-06-12 06:47:00,52.0,21.5,29.82,NW,310,0.0,0.0,30,0.00,CLR,,0.00,WeatherDisplay:10.37,2013-06-12 12:47:00,
2013-06-12 06:52:00,53.2,21.7,29.82,NW,310,0.0,0.0,29,0.00,CLR,,0.00,WeatherDisplay:10.37,2013-06-12 12:52:00,
2013-06-12 06:57:00,54.2,24.9,29.82,NW,310,3.5,3.5,32,0.00,CLR,,0.00,WeatherDisplay:10.37,2013-06-12 12:57:00,
2013-06-12 07:02:00,53.9,27.5,29.81,NW,310,3.5,3.5,36,0.00,CLR,,0.00,WeatherDisplay:10.37,2013-06-12 13:02:00,
2013-06-12 07:07:00,53.8,28.1,29.81,NW,309,3.5,3.5,37,0.00,CLR,,0.00,WeatherDisplay:10.37,2013-06-12 13:07:00,
2013-06-12 07:12:00,54.1,27.7,29.81,NW,309,1.2,1.2,36,0.00,CLR,,0.00,WeatherDisplay:10.37,2013-06-12 13:12:00,
2013-06-12 07:17:00,55.0,27.1,29.83,NW,309,1.2,1.2,34,0.00,CLR,,0.00,WeatherDisplay:10.37,2013-06-12 13:17:00,
2013-06-12 07:22:00,55.7,26.3,29.83,NW,313,1.2,1.2,32,0.00,CLR,,0.00,WeatherDisplay:10.37,2013-06-12 13:22:00,
2013-06-12 07:27:00,56.5,28.4,29.83,NW,313,1.2,1.2,34,0.00,CLR,,0.00,WeatherDisplay:10.37,2013-06-12 13:27:00,
2013-06-12 07:32:00,57.2,29.1,29.81,NW,313,0.0,0.1,34,0.00,CLR,,0.00,WeatherDisplay:10.37,2013-06-12 13:32:00,
2013-06-12 07:37:00,58.0,29.0,29.81,NW,313,1.0,1.0,33,0.00,CLR,,0.00,WeatherDisplay:10.37,2013-06-12 13:37:00,
2013-06-12 07:42:00,58.9,28.3,29.81,NW,313,0.0,0.4,31,0.00,CLR,,0.00,WeatherDisplay:10.37,2013-06-12 13:42:00,
2013-06-12 07:47:00,59.8,29.1,29.80,NNW,343,2.3,2.3,31,0.00,CLR,,0.00,WeatherDisplay:10.37,2013-06-12 13:47:00,
2013-06-12 07:52:00,60.7,29.1,29.80,NNE,25,2.3,2.3,30,0.00,CLR,,0.00,WeatherDisplay:10.37,2013-06-12 13:52:00,
2013-06-12 07:57:00,61.3,32.7,29.80,NE,36,2.3,2.3,34,0.00,CLR,,0.00,WeatherDisplay:10.37,2013-06-12 13:57:00,
2013-06-12 08:02:00,61.8,32.4,29.75,NE,36,2.3,2.3,33,0.00,CLR,,0.00,WeatherDisplay:10.37,2013-06-12 14:02:00,
2013-06-12 08:07:00,62.4,30.5,29.75,NE,36,2.3,2.3,30,0.00,CLR,,0.00,WeatherDisplay:10.37,2013-06-12 14:07:00,
2013-06-12 08:12:00,63.1,30.3,29.75,NE,36,1.2,1.2,29,0.00,CLR,,0.00,WeatherDisplay:10.37,2013-06-12 14:12:00,
2013-06-12 08:17:00,63.7,34.0,29.78,NE,36,2.3,2.3,33,0.00,CLR,,0.00,WeatherDisplay:10.37,2013-06-12 14:17:00,
2013-06-12 08:22:00,65.0,33.6,29.78,NE,36,2.3,2.3,31,0.00,CLR,,0.00,WeatherDisplay:10.37,2013-06-12 14:22:00,
2013-06-12 08:27:00,66.0,31.0,29.78,ENE,63,2.3,2.3,27,0.00,CLR,,0.00,WeatherDisplay:10.37,2013-06-12 14:27:00,
2013-06-12 08:32:00,66.6,32.5,29.76,East,93,1.2,1.2,28,0.00,CLR,,0.00,WeatherDisplay:10.37,2013-06-12 14:32:00,
2013-06-12 08:37:00,66.9,29.9,29.76,ESE,122,2.3,2.3,25,0.00,CLR,,0.00,WeatherDisplay:10.37,2013-06-12 14:37:00,
2013-06-12 08:42:00,67.1,29.1,29.76,SE,124,0.0,0.0,24,0.00,CLR,,0.00,WeatherDisplay:10.37,2013-06-12 14:42:00,
2013-06-12 08:47:00,67.6,28.5,29.75,SE,124,1.2,0.0,23,0.00,CLR,,0.00,WeatherDisplay:10.37,2013-06-12 14:47:00,
2013-06-12 08:52:00,69.1,25.1,29.75,SE,127,1.2,1.2,19,0.00,CLR,,0.00,WeatherDisplay:10.37,2013-06-12 14:52:00,
2013-06-12 08:57:00,69.4,24.0,29.75,South,183,1.2,1.2,18,0.00,CLR,,0.00,WeatherDisplay:10.37,2013-06-12 14:57:00,
2013-06-12 09:02:00,69.9,24.4,29.73,South,183,1.2,0.0,18,0.00,CLR,,0.00,WeatherDisplay:10.37,2013-06-12 15:02:00,
2013-06-12 09:07:00,70.9,23.9,29.73,NE,45,2.3,2.3,17,0.00,CLR,,0.00,WeatherDisplay:10.37,2013-06-12 15:07:00,
2013-06-12 09:12:00,72.0,24.8,29.73,ESE,111,1.2,1.2,17,0.00,CLR,,0.00,WeatherDisplay:10.37,2013-06-12 15:12:00,
2013-06-12 09:17:00,72.5,25.2,29.72,ENE,73,3.5,3.5,17,0.00,CLR,,0.00,WeatherDisplay:10.37,2013-06-12 15:17:00,
2013-06-12 09:22:00,73.0,27.0,29.72,NNE,14,6.9,6.9,18,0.00,CLR,,0.00,WeatherDisplay:10.37,2013-06-12 15:22:00,
2013-06-12 09:27:00,73.9,24.8,29.72,ENE,64,5.8,5.8,16,0.00,CLR,,0.00,WeatherDisplay:10.37,2013-06-12 15:27:00,
2013-06-12 09:32:00,74.6,26.9,29.70,ENE,72,4.6,4.6,17,0.00,CLR,,0.00,WeatherDisplay:10.37,2013-06-12 15:32:00,
2013-06-12 09:37:00,74.4,23.7,29.70,South,183,5.8,5.8,15,0.00,CLR,,0.00,WeatherDisplay:10.37,2013-06-12 15:37:00,
2013-06-12 09:42:00,74.2,25.1,29.70,SSE,168,2.3,2.3,16,0.00,CLR,,0.00,WeatherDisplay:10.37,2013-06-12 15:42:00,
2013-06-12 09:47:00,74.2,23.5,29.70,SE,128,4.6,4.6,15,0.00,CLR,,0.00,WeatherDisplay:10.37,2013-06-12 15:47:00,
2013-06-12 09:52:00,73.9,24.8,29.70,SE,128,2.3,2.3,16,0.00,CLR,,0.00,WeatherDisplay:10.37,2013-06-12 15:52:00,
2013-06-12 09:57:00,74.4,23.7,29.70,ENE,59,8.1,8.1,15,0.00,CLR,,0.00,WeatherDisplay:10.37,2013-06-12 15:57:00,
2013-06-12 10:02:00,74.6,25.4,29.70,SE,128,6.9,6.9,16,0.00,CLR,,0.00,WeatherDisplay:10.37,2013-06-12 16:02:00,
2013-06-12 10:07:00,74.4,23.7,29.70,SSE,152,6.9,6.9,15,0.00,CLR,,0.00,WeatherDisplay:10.37,2013-06-12 16:07:00,
2013-06-12 10:12:00,74.9,25.6,29.70,NNE,24,8.1,8.1,16,0.00,CLR,,0.00,WeatherDisplay:10.37,2013-06-12 16:12:00,
2013-06-12 10:17:00,75.1,24.3,29.70,South,187,6.0,6.0,15,0.00,CLR,,0.00,WeatherDisplay:10.37,2013-06-12 16:17:00,
2013-06-12 10:22:00,75.4,24.5,29.70,SE,128,5.8,5.8,15,0.00,CLR,,0.00,WeatherDisplay:10.37,2013-06-12 16:22:00,
2013-06-12 10:27:00,75.4,26.1,29.70,SE,128,6.9,6.9,16,0.00,CLR,,0.00,WeatherDisplay:10.37,2013-06-12 16:27:00,
2013-06-12 10:32:00,75.1,25.8,29.69,SE,125,8.0,8.0,16,0.00,CLR,,0.00,WeatherDisplay:10.37,2013-06-12 16:32:00,
2013-06-12 10:37:00,74.9,27.1,29.69,ESE,117,6.9,6.9,17,0.00,CLR,,0.00,WeatherDisplay:10.37,2013-06-12 16:37:00,
2013-06-12 10:42:00,75.1,27.3,29.69,ESE,122,8.1,8.1,17,0.00,CLR,,0.00,WeatherDisplay:10.37,2013-06-12 16:42:00,
2013-06-12 10:47:00,74.9,25.6,29.69,ENE,77,10.4,10.4,16,0.00,CLR,,0.00,WeatherDisplay:10.37,2013-06-12 16:47:00,
2013-06-12 10:52:00,75.1,24.3,29.69,ESE,110,11.5,11.5,15,0.00,CLR,,0.00,WeatherDisplay:10.37,2013-06-12 16:52:00,
2013-06-12 10:57:00,75.3,24.4,29.69,ESE,117,5.8,5.8,15,0.00,CLR,,0.00,WeatherDisplay:10.37,2013-06-12 16:57:00,
2013-06-12 11:02:00,75.6,24.7,29.69,ESE,122,10.4,10.4,15,0.00,CLR,,0.00,WeatherDisplay:10.37,2013-06-12 17:02:00,
2013-06-12 11:07:00,75.8,26.4,29.69,ESE,121,6.9,6.9,16,0.00,CLR,,0.00,WeatherDisplay:10.37,2013-06-12 17:07:00,
2013-06-12 11:12:00,75.8,26.4,29.69,SE,128,10.4,10.4,16,0.00,CLR,,0.00,WeatherDisplay:10.37,2013-06-12 17:12:00,
2013-06-12 11:17:00,75.3,27.4,29.68,SE,132,10.4,10.4,17,0.00,CLR,,0.00,WeatherDisplay:10.37,2013-06-12 17:17:00,
2013-06-12 11:22:00,75.4,27.5,29.68,SE,124,8.1,8.1,17,0.00,CLR,,0.00,WeatherDisplay:10.37,2013-06-12 17:22:00,
2013-06-12 11:27:00,75.6,27.7,29.68,SE,125,10.4,10.4,17,0.00,CLR,,0.00,WeatherDisplay:10.37,2013-06-12 17:27:00,
2013-06-12 11:32:00,76.3,26.8,29.68,SE,127,10.4,10.4,16,0.00,CLR,,0.00,WeatherDisplay:10.37,2013-06-12 17:32:00,
2013-06-12 11:37:00,76.1,28.1,29.68,ESE,121,11.5,11.5,17,0.00,CLR,,0.00,WeatherDisplay:10.37,2013-06-12 17:37:00,
2013-06-12 11:42:00,76.0,28.0,29.68,ESE,112,10.4,10.4,17,0.00,CLR,,0.00,WeatherDisplay:10.37,2013-06-12 17:42:00,
2013-06-12 11:47:00,75.8,27.8,29.68,East,101,12.7,12.7,17,0.00,CLR,,0.00,WeatherDisplay:10.37,2013-06-12 17:47:00,
2013-06-12 11:52:00,76.0,29.4,29.68,East,101,8.1,8.1,18,0.00,CLR,,0.00,WeatherDisplay:10.37,2013-06-12 17:52:00,
2013-06-12 11:57:00,76.5,29.8,29.68,ESE,121,5.8,5.8,18,0.00,CLR,,0.00,WeatherDisplay:10.37,2013-06-12 17:57:00,
2013-06-12 12:02:00,76.3,29.7,29.66,ESE,121,11.5,11.5,18,0.00,CLR,,0.00,WeatherDisplay:10.37,2013-06-12 18:02:00,
2013-06-12 12:07:00,76.1,30.8,29.66,ESE,121,7.0,7.0,19,0.00,CLR,,0.00,WeatherDisplay:10.37,2013-06-12 18:07:00,
2013-06-12 12:12:00,76.5,31.1,29.66,ESE,107,5.8,5.8,19,0.00,CLR,,0.00,WeatherDisplay:10.37,2013-06-12 18:12:00,
2013-06-12 12:17:00,76.3,29.7,29.68,SW,230,5.8,5.8,18,0.00,CLR,,0.00,WeatherDisplay:10.37,2013-06-12 18:17:00,
2013-06-12 12:22:00,76.7,31.3,29.68,ESE,110,11.5,11.5,19,0.00,CLR,,0.00,WeatherDisplay:10.37,2013-06-12 18:22:00,
2013-06-12 12:27:00,76.5,29.8,29.68,SSE,156,10.4,10.4,18,0.00,CLR,,0.00,WeatherDisplay:10.37,2013-06-12 18:27:00,
2013-06-12 12:32:00,76.8,30.1,29.67,SSW,192,8.1,8.1,18,0.00,CLR,,0.00,WeatherDisplay:10.37,2013-06-12 18:32:00,
2013-06-12 12:37:00,76.1,28.1,29.67,SE,128,11.5,11.5,17,0.00,CLR,,0.00,WeatherDisplay:10.37,2013-06-12 18:37:00,
2013-06-12 12:42:00,75.8,29.2,29.67,ESE,115,12.7,12.7,18,0.00,CLR,,0.00,WeatherDisplay:10.37,2013-06-12 18:42:00,
2013-06-12 12:47:00,76.5,23.7,29.67,South,172,13.8,13.8,14,0.00,CLR,,0.00,WeatherDisplay:10.37,2013-06-12 18:47:00,
2013-06-12 12:52:00,78.1,23.2,29.67,WNW,282,19.6,19.6,13,0.00,CLR,,0.00,WeatherDisplay:10.37,2013-06-12 18:52:00,
2013-06-12 12:57:00,78.6,19.7,29.67,WSW,252,8.1,8.1,11,0.00,CLR,,0.00,WeatherDisplay:10.37,2013-06-12 18:57:00,
2013-06-12 13:02:00,79.6,20.4,29.66,WSW,238,22.0,22.0,11,0.00,CLR,,0.00,WeatherDisplay:10.37,2013-06-12 19:02:00,
2013-06-12 13:07:00,79.2,22.2,29.66,South,175,19.6,19.6,12,0.00,CLR,,0.00,WeatherDisplay:10.37,2013-06-12 19:07:00,
2013-06-12 13:12:00,79.6,24.4,29.66,SW,220,8.0,11.3,13,0.00,CLR,,0.00,WeatherDisplay:10.37,2013-06-12 19:12:00,
2013-06-12 13:17:00,80.3,23.0,29.65,South,176,19.0,19.0,12,0.00,CLR,,0.00,WeatherDisplay:10.37,2013-06-12 19:17:00,
2013-06-12 13:22:00,79.9,28.1,29.65,South,169,11.5,11.5,15,0.00,CLR,,0.00,WeatherDisplay:10.37,2013-06-12 19:22:00,
2013-06-12 13:27:00,80.5,28.6,29.65,WNW,296,7.0,8.2,15,0.00,CLR,,0.00,WeatherDisplay:10.37,2013-06-12 19:27:00,
2013-06-12 13:32:00,81.4,27.6,29.62,SE,144,17.3,17.3,14,0.00,CLR,,0.00,WeatherDisplay:10.37,2013-06-12 19:32:00,
2013-06-12 13:37:00,81.8,26.1,29.62,South,172,7.0,7.0,13,0.00,CLR,,0.00,WeatherDisplay:10.37,2013-06-12 19:37:00,
2013-06-12 13:42:00,82.2,22.4,29.62,South,189,20.7,20.7,11,0.00,CLR,,0.00,WeatherDisplay:10.37,2013-06-12 19:42:00,
2013-06-12 13:47:00,81.4,21.8,29.63,WSW,254,12.7,12.7,11,0.00,CLR,,0.00,WeatherDisplay:10.37,2013-06-12 19:47:00,
2013-06-12 13:52:00,81.2,21.7,29.63,WSW,242,16.1,16.1,11,0.00,CLR,,0.00,WeatherDisplay:10.37,2013-06-12 19:52:00,
2013-06-12 13:57:00,82.0,24.4,29.63,WSW,245,26.5,26.5,12,0.00,CLR,,0.00,WeatherDisplay:10.37,2013-06-12 19:57:00,
2013-06-12 14:02:00,81.8,24.2,29.62,South,170,10.4,10.4,12,0.00,CLR,,0.00,WeatherDisplay:10.37,2013-06-12 20:02:00,
2013-06-12 14:07:00,81.6,19.7,29.62,SW,228,17.3,17.3,10,0.00,CLR,,0.00,WeatherDisplay:10.37,2013-06-12 20:07:00,
2013-06-12 14:12:00,82.4,22.6,29.62,South,184,17.0,17.0,11,0.00,CLR,,0.00,WeatherDisplay:10.37,2013-06-12 20:12:00,
2013-06-12 14:17:00,82.2,20.2,29.67,WSW,251,12.7,12.7,10,0.00,CLR,,0.00,WeatherDisplay:10.37,2013-06-12 20:17:00,
2013-06-12 14:22:00,82.6,28.6,29.67,SE,145,18.0,18.0,14,0.00,CLR,,0.00,WeatherDisplay:10.37,2013-06-12 20:22:00,
2013-06-12 14:27:00,81.6,27.8,29.67,SE,134,11.5,11.5,14,0.00,CLR,,0.00,WeatherDisplay:10.37,2013-06-12 20:27:00,
2013-06-12 14:32:00,81.4,29.3,29.68,SE,129,10.0,10.0,15,0.00,CLR,,0.00,WeatherDisplay:10.37,2013-06-12 20:32:00,
2013-06-12 14:37:00,82.2,29.9,29.68,SE,136,16.1,16.1,15,0.00,CLR,,0.00,WeatherDisplay:10.37,2013-06-12 20:37:00,
2013-06-12 14:42:00,82.2,28.2,29.68,SSE,158,12.0,12.0,14,0.00,CLR,,0.00,WeatherDisplay:10.37,2013-06-12 20:42:00,
2013-06-12 14:47:00,82.0,29.8,29.66,SE,146,11.5,11.5,15,0.00,CLR,,0.00,WeatherDisplay:10.37,2013-06-12 20:47:00,
2013-06-12 14:52:00,82.0,29.8,29.66,SE,128,11.5,11.5,15,0.00,CLR,,0.00,WeatherDisplay:10.37,2013-06-12 20:52:00,
2013-06-12 14:57:00,81.6,29.4,29.66,SSE,166,11.5,11.9,15,0.00,CLR,,0.00,WeatherDisplay:10.37,2013-06-12 20:57:00,
2013-06-12 15:02:00,81.4,29.3,29.65,SSE,158,10.0,10.0,15,0.00,CLR,,0.00,WeatherDisplay:10.37,2013-06-12 21:02:00,
2013-06-12 15:07:00,81.4,30.9,29.65,ESE,114,5.8,5.8,16,0.00,CLR,,0.00,WeatherDisplay:10.37,2013-06-12 21:07:00,
2013-06-12 15:12:00,81.1,29.1,29.65,SE,141,10.0,10.0,15,0.00,CLR,,0.00,WeatherDisplay:10.37,2013-06-12 21:12:00,
2013-06-12 15:17:00,80.9,28.9,29.69,ENE,74,11.5,11.5,15,0.00,CLR,,0.00,WeatherDisplay:10.37,2013-06-12 21:17:00,
2013-06-12 15:22:00,80.5,30.2,29.69,ESE,115,16.1,16.1,16,0.00,CLR,,0.00,WeatherDisplay:10.37,2013-06-12 21:22:00,
2013-06-12 15:27:00,80.5,30.2,29.69,SE,128,12.7,12.7,16,0.00,CLR,,0.00,WeatherDisplay:10.37,2013-06-12 21:27:00,
2013-06-12 15:32:00,80.9,30.5,29.69,East,91,11.5,11.5,16,0.00,CLR,,0.00,WeatherDisplay:10.37,2013-06-12 21:32:00,
2013-06-12 15:37:00,81.1,30.6,29.69,ESE,108,11.5,11.5,16,0.00,CLR,,0.00,WeatherDisplay:10.37,2013-06-12 21:37:00,
2013-06-12 15:42:00,80.7,30.3,29.69,ESE,117,11.5,11.5,16,0.00,CLR,,0.00,WeatherDisplay:10.37,2013-06-12 21:42:00,
2013-06-12 15:47:00,80.5,30.2,29.69,SE,128,13.0,13.0,16,0.00,CLR,,0.00,WeatherDisplay:10.37,2013-06-12 21:47:00,
2013-06-12 15:52:00,80.5,30.2,29.69,ESE,114,11.5,11.5,16,0.00,CLR,,0.00,WeatherDisplay:10.37,2013-06-12 21:52:00,
2013-06-12 15:57:00,80.5,30.2,29.69,SE,124,10.4,10.4,16,0.00,CLR,,0.00,WeatherDisplay:10.37,2013-06-12 21:57:00,
2013-06-12 16:02:00,80.3,30.0,29.69,ESE,122,13.8,13.8,16,0.00,CLR,,0.00,WeatherDisplay:10.37,2013-06-12 22:02:00,
2013-06-12 16:07:00,80.1,29.8,29.69,East,100,13.8,13.8,16,0.00,CLR,,0.00,WeatherDisplay:10.37,2013-06-12 22:07:00,
2013-06-12 16:12:00,79.8,29.6,29.69,ESE,110,12.7,12.7,16,0.00,CLR,,0.00,WeatherDisplay:10.37,2013-06-12 22:12:00,
2013-06-12 16:17:00,79.9,29.7,29.73,SE,125,11.5,11.5,16,0.00,CLR,,0.00,WeatherDisplay:10.37,2013-06-12 22:17:00,
2013-06-12 16:22:00,80.1,29.8,29.73,ESE,117,11.5,11.5,16,0.00,CLR,,0.00,WeatherDisplay:10.37,2013-06-12 22:22:00,
2013-06-12 16:27:00,79.8,29.6,29.73,SE,128,8.1,8.1,16,0.00,CLR,,0.00,WeatherDisplay:10.37,2013-06-12 22:27:00,
2013-06-12 16:32:00,79.9,29.7,29.72,SE,136,11.5,11.5,16,0.00,CLR,,0.00,WeatherDisplay:10.37,2013-06-12 22:32:00,
2013-06-12 16:37:00,79.9,29.7,29.72,SE,135,16.1,16.1,16,0.00,CLR,,0.00,WeatherDisplay:10.37,2013-06-12 22:37:00,
2013-06-12 16:42:00,79.9,29.7,29.72,SE,125,16.1,16.1,16,0.00,CLR,,0.00,WeatherDisplay:10.37,2013-06-12 22:42:00,
2013-06-12 16:47:00,79.8,28.0,29.73,East,98,11.5,11.5,15,0.00,CLR,,0.00,WeatherDisplay:10.37,2013-06-12 22:47:00,
2013-06-12 16:52:00,79.4,29.3,29.73,ESE,120,10.4,10.4,16,0.00,CLR,,0.00,WeatherDisplay:10.37,2013-06-12 22:52:00,
2013-06-12 16:57:00,79.4,29.3,29.73,ESE,117,19.6,19.6,16,0.00,CLR,,0.00,WeatherDisplay:10.37,2013-06-12 22:57:00,
2013-06-12 17:03:00,79.2,27.5,29.73,ESE,104,10.4,10.4,15,0.00,CLR,,0.00,WeatherDisplay:10.37,2013-06-12 23:03:00,
2013-06-12 17:08:00,78.6,28.6,29.73,ESE,120,11.5,11.5,16,0.00,CLR,,0.00,WeatherDisplay:10.37,2013-06-12 23:08:00,
2013-06-12 17:13:00,78.8,28.8,29.73,ESE,107,11.5,11.5,16,0.00,CLR,,0.00,WeatherDisplay:10.37,2013-06-12 23:13:00,
2013-06-12 17:18:00,79.0,28.9,29.75,ESE,105,19.6,19.6,16,0.00,CLR,,0.00,WeatherDisplay:10.37,2013-06-12 23:18:00,
2013-06-12 17:23:00,78.5,27.0,29.75,ESE,117,11.0,11.0,15,0.00,CLR,,0.00,WeatherDisplay:10.37,2013-06-12 23:23:00,
2013-06-12 17:28:00,78.8,28.8,29.75,ESE,118,1.2,1.2,16,0.00,CLR,,0.00,WeatherDisplay:10.37,2013-06-12 23:28:00,
2013-06-12 17:33:00,78.6,28.6,29.75,East,81,13.0,13.0,16,0.00,CLR,,0.00,WeatherDisplay:10.37,2013-06-12 23:33:00,
2013-06-12 17:38:00,78.5,28.5,29.75,SE,125,6.9,6.9,16,0.00,CLR,,0.00,WeatherDisplay:10.37,2013-06-12 23:38:00,
2013-06-12 17:43:00,78.6,28.6,29.75,ESE,108,17.3,17.3,16,0.00,CLR,,0.00,WeatherDisplay:10.37,2013-06-12 23:43:00,
2013-06-12 17:48:00,78.3,28.4,29.76,East,91,16.0,16.0,16,0.00,CLR,,0.00,WeatherDisplay:10.37,2013-06-12 23:48:00,
2013-06-12 17:53:00,78.3,28.4,29.76,ESE,112,10.4,10.4,16,0.00,CLR,,0.00,WeatherDisplay:10.37,2013-06-12 23:53:00,
2013-06-12 17:58:00,77.9,28.1,29.76,ESE,114,11.5,11.5,16,0.00,CLR,,0.00,WeatherDisplay:10.37,2013-06-12 23:58:00,
2013-06-12 18:03:00,77.6,27.8,29.75,East,98,10.4,10.4,16,0.00,CLR,,0.00,WeatherDisplay:10.37,2013-06-13 00:03:00,
2013-06-12 18:08:00,77.2,29.0,29.75,SE,125,8.1,8.1,17,0.00,CLR,,0.00,WeatherDisplay:10.37,2013-06-13 00:08:00,
2013-06-12 18:13:00,77.4,29.1,29.75,ESE,104,16.1,16.1,17,0.00,CLR,,0.00,WeatherDisplay:10.37,2013-06-13 00:13:00,
2013-06-12 18:18:00,77.6,27.8,29.71,ESE,110,10.4,10.4,16,0.00,CLR,,0.00,WeatherDisplay:10.37,2013-06-13 00:18:00,
2013-06-12 18:23:00,77.4,27.7,29.71,ESE,121,11.5,11.5,16,0.00,CLR,,0.00,WeatherDisplay:10.37,2013-06-13 00:23:00,
2013-06-12 18:28:00,76.8,27.2,29.71,ESE,115,8.1,8.1,16,0.00,CLR,,0.00,WeatherDisplay:10.37,2013-06-13 00:28:00,
2013-06-12 18:33:00,76.5,26.9,29.72,East,93,11.5,11.5,16,0.00,CLR,,0.00,WeatherDisplay:10.37,2013-06-13 00:33:00,
2013-06-12 18:38:00,76.5,28.4,29.72,East,93,7.0,7.0,17,0.00,CLR,,0.00,WeatherDisplay:10.37,2013-06-13 00:38:00,
2013-06-12 18:43:00,76.3,28.3,29.72,East,87,10.4,10.4,17,0.00,CLR,,0.00,WeatherDisplay:10.37,2013-06-13 00:43:00,
2013-06-12 18:48:00,76.1,29.5,29.72,ESE,121,4.6,4.6,18,0.00,CLR,,0.00,WeatherDisplay:10.37,2013-06-13 00:48:00,
2013-06-12 18:53:00,75.8,29.2,29.72,ESE,103,12.7,12.7,18,0.00,CLR,,0.00,WeatherDisplay:10.37,2013-06-13 00:53:00,
2013-06-12 18:58:00,75.6,29.1,29.72,ESE,110,6.9,6.9,18,0.00,CLR,,0.00,WeatherDisplay:10.37,2013-06-13 00:58:00,
2013-06-12 19:03:00,75.3,30.2,29.74,NE,50,11.5,11.5,19,0.00,CLR,,0.00,WeatherDisplay:10.37,2013-06-13 01:03:00,
2013-06-12 19:08:00,74.9,31.1,29.74,East,87,6.9,6.9,20,0.00,CLR,,0.00,WeatherDisplay:10.37,2013-06-13 01:08:00,
2013-06-12 19:13:00,74.4,30.7,29.74,ENE,67,11.5,11.5,20,0.00,CLR,,0.00,WeatherDisplay:10.37,2013-06-13 01:13:00,
2013-06-12 19:18:00,74.0,31.6,29.69,East,91,8.1,8.1,21,0.00,CLR,,0.00,WeatherDisplay:10.37,2013-06-13 01:18:00,
2013-06-12 19:23:00,73.7,30.1,29.69,ENE,77,8.1,8.1,20,0.00,CLR,,0.00,WeatherDisplay:10.37,2013-06-13 01:23:00,
2013-06-12 19:28:00,73.7,31.3,29.69,NNE,19,6.9,6.9,21,0.00,CLR,,0.00,WeatherDisplay:10.37,2013-06-13 01:28:00,
2013-06-12 19:33:00,73.3,29.8,29.69,NE,36,6.9,6.9,20,0.00,CLR,,0.00,WeatherDisplay:10.37,2013-06-13 01:33:00,
2013-06-12 19:38:00,73.2,30.9,29.69,North,350,5.8,5.8,21,0.00,CLR,,0.00,WeatherDisplay:10.37,2013-06-13 01:38:00,
2013-06-12 19:43:00,73.0,30.7,29.69,North,350,2.3,2.3,21,0.00,CLR,,0.00,WeatherDisplay:10.37,2013-06-13 01:43:00,
2013-06-12 19:48:00,72.8,31.7,29.71,North,350,3.5,3.5,22,0.00,CLR,,0.00,WeatherDisplay:10.37,2013-06-13 01:48:00,
2013-06-12 19:53:00,72.7,30.5,29.71,North,350,5.8,5.8,21,0.00,CLR,,0.00,WeatherDisplay:10.37,2013-06-13 01:53:00,
2013-06-12 19:58:00,72.5,30.3,29.71,North,352,6.9,6.9,21,0.00,CLR,,0.00,WeatherDisplay:10.37,2013-06-13 01:58:00,
2013-06-12 20:03:00,72.3,30.1,29.71,NNW,345,5.8,5.8,21,0.00,CLR,,0.00,WeatherDisplay:10.37,2013-06-13 02:03:00,
2013-06-12 20:08:00,72.1,31.1,29.71,NNW,345,4.6,4.6,22,0.00,CLR,,0.00,WeatherDisplay:10.37,2013-06-13 02:08:00,
2013-06-12 20:13:00,72.0,29.9,29.71,NNW,345,3.5,3.5,21,0.00,CLR,,0.00,WeatherDisplay:10.37,2013-06-13 02:13:00,
2013-06-12 20:18:00,71.6,30.7,29.66,NNW,345,4.6,4.6,22,0.00,CLR,,0.00,WeatherDisplay:10.37,2013-06-13 02:18:00,
2013-06-12 20:23:00,71.3,31.6,29.66,NE,36,3.5,3.5,23,0.00,CLR,,0.00,WeatherDisplay:10.37,2013-06-13 02:23:00,
2013-06-12 20:28:00,70.8,31.1,29.66,NE,36,2.3,2.3,23,0.00,CLR,,0.00,WeatherDisplay:10.37,2013-06-13 02:28:00,
2013-06-12 20:33:00,70.4,31.9,29.67,NE,36,2.3,2.3,24,0.00,CLR,,0.00,WeatherDisplay:10.37,2013-06-13 02:33:00,
2013-06-12 20:38:00,69.9,31.4,29.67,NE,36,3.5,3.5,24,0.00,CLR,,0.00,WeatherDisplay:10.37,2013-06-13 02:38:00,
2013-06-12 20:43:00,69.4,32.0,29.67,NE,36,2.3,2.3,25,0.00,CLR,,0.00,WeatherDisplay:10.37,2013-06-13 02:43:00,
2013-06-12 20:48:00,69.1,33.7,29.68,NE,36,2.3,2.3,27,0.00,CLR,,0.00,WeatherDisplay:10.37,2013-06-13 02:48:00,
2013-06-12 20:53:00,68.4,33.1,29.68,North,8,3.5,3.5,27,0.00,CLR,,0.00,WeatherDisplay:10.37,2013-06-13 02:53:00,
2013-06-12 20:58:00,67.8,31.6,29.68,North,8,2.3,2.3,26,0.00,CLR,,0.00,WeatherDisplay:10.37,2013-06-13 02:58:00,
2013-06-12 21:03:00,67.4,32.2,29.69,North,8,2.3,2.3,27,0.00,CLR,,0.00,WeatherDisplay:10.37,2013-06-13 03:03:00,
2013-06-12 21:08:00,67.1,32.0,29.69,North,7,4.6,4.6,27,0.00,CLR,,0.00,WeatherDisplay:10.37,2013-06-13 03:08:00,
2013-06-12 21:13:00,66.6,31.5,29.69,North,0,4.6,4.6,27,0.00,CLR,,0.00,WeatherDisplay:10.37,2013-06-13 03:13:00,
2013-06-12 21:18:00,66.4,32.3,29.67,North,2,5.8,5.8,28,0.00,CLR,,0.00,WeatherDisplay:10.37,2013-06-13 03:18:00,
2013-06-12 21:23:00,66.4,31.4,29.67,North,9,6.9,6.9,27,0.00,CLR,,0.00,WeatherDisplay:10.37,2013-06-13 03:23:00,
2013-06-12 21:28:00,66.9,31.8,29.67,NNE,21,4.6,4.6,27,0.00,CLR,,0.00,WeatherDisplay:10.37,2013-06-13 03:28:00,
2013-06-12 21:33:00,66.8,32.6,29.67,NNE,19,6.9,6.9,28,0.00,CLR,,0.00,WeatherDisplay:10.37,2013-06-13 03:33:00,
2013-06-12 21:38:00,66.4,32.3,29.67,NNE,12,14.0,14.0,28,0.00,CLR,,0.00,WeatherDisplay:10.37,2013-06-13 03:38:00,
2013-06-12 21:43:00,67.3,34.8,29.67,NE,45,11.5,11.5,30,0.00,CLR,,0.00,WeatherDisplay:10.37,2013-06-13 03:43:00,
2013-06-12 21:48:00,67.6,35.0,29.68,NE,38,11.5,11.5,30,0.00,CLR,,0.00,WeatherDisplay:10.37,2013-06-13 03:48:00,
2013-06-12 21:53:00,67.6,35.9,29.68,NNE,28,7.0,7.0,31,0.00,CLR,,0.00,WeatherDisplay:10.37,2013-06-13 03:53:00,
2013-06-12 21:58:00,67.4,37.3,29.68,NE,39,10.4,10.4,33,0.00,CLR,,0.00,WeatherDisplay:10.37,2013-06-13 03:58:00,
2013-06-12 22:01:00,67.3,37.2,29.68,NE,39,10.4,10.4,33,0.00,CLR,,0.00,WeatherDisplay:10.37,2013-06-13 04:01:00,
2013-06-12 22:02:00,67.1,37.0,29.68,NNE,31,10.0,10.0,33,0.00,CLR,,0.00,WeatherDisplay:10.37,2013-06-13 04:02:00,
2013-06-12 22:03:00,67.1,37.8,29.68,NE,49,11.5,11.5,34,0.00,CLR,,0.00,WeatherDisplay:10.37,2013-06-13 04:03:00,
2013-06-12 22:08:00,66.8,38.3,29.68,ENE,77,8.1,8.1,35,0.00,CLR,,0.00,WeatherDisplay:10.37,2013-06-13 04:08:00,
2013-06-12 22:13:00,66.3,38.5,29.68,NE,42,11.5,11.5,36,0.00,CLR,,0.00,WeatherDisplay:10.37,2013-06-13 04:13:00,
2013-06-12 22:18:00,66.0,39.0,29.70,ENE,69,6.9,6.9,37,0.00,CLR,,0.00,WeatherDisplay:10.37,2013-06-13 04:18:00,
2013-06-12 22:23:00,65.8,40.1,29.70,East,93,10.4,10.4,39,0.00,CLR,,0.00,WeatherDisplay:10.37,2013-06-13 04:23:00,
2013-06-12 22:28:00,65.5,41.2,29.70,ENE,62,8.1,8.1,41,0.00,CLR,,0.00,WeatherDisplay:10.37,2013-06-13 04:28:00,
2013-06-12 22:33:00,65.2,41.5,29.71,East,83,10.4,10.4,42,0.00,CLR,,0.00,WeatherDisplay:10.37,2013-06-13 04:33:00,
2013-06-12 22:38:00,64.8,41.8,29.71,East,79,11.5,11.5,43,0.00,CLR,,0.00,WeatherDisplay:10.37,2013-06-13 04:38:00,
2013-06-12 22:43:00,64.3,42.5,29.71,ENE,73,11.5,11.5,45,0.00,CLR,,0.00,WeatherDisplay:10.37,2013-06-13 04:43:00,
2013-06-12 22:48:00,64.0,42.8,29.73,ESE,111,5.8,5.8,46,0.00,CLR,,0.00,WeatherDisplay:10.37,2013-06-13 04:48:00,
2013-06-12 22:53:00,63.7,43.6,29.73,East,90,6.0,6.0,48,0.00,CLR,,0.00,WeatherDisplay:10.37,2013-06-13 04:53:00,
2013-06-12 22:58:00,63.2,44.2,29.73,NE,56,8.1,8.1,50,0.00,CLR,,0.00,WeatherDisplay:10.37,2013-06-13 04:58:00,
2013-06-12 23:03:00,62.9,44.5,29.72,NE,55,6.9,6.9,51,0.00,CLR,,0.00,WeatherDisplay:10.37,2013-06-13 05:03:00,
2013-06-12 23:08:00,62.6,44.7,29.72,East,93,6.0,6.0,52,0.00,CLR,,0.00,WeatherDisplay:10.37,2013-06-13 05:08:00,
2013-06-12 23:13:00,62.3,44.9,29.72,ENE,74,6.9,6.9,53,0.00,CLR,,0.00,WeatherDisplay:10.37,2013-06-13 05:13:00,
2013-06-12 23:18:00,62.1,45.2,29.72,East,91,8.1,8.1,54,0.00,CLR,,0.00,WeatherDisplay:10.37,2013-06-13 05:18:00,
2013-06-12 23:23:00,61.8,45.9,29.72,East,90,11.5,11.5,56,0.00,CLR,,0.00,WeatherDisplay:10.37,2013-06-13 05:23:00,
2013-06-12 23:28:00,61.6,45.7,29.72,East,96,6.0,6.0,56,0.00,CLR,,0.00,WeatherDisplay:10.37,2013-06-13 05:28:00,
2013-06-12 23:33:00,61.3,45.9,29.72,NNE,14,5.8,5.8,57,0.00,CLR,,0.00,WeatherDisplay:10.37,2013-06-13 05:33:00,
2013-06-12 23:38:00,61.2,46.3,29.72,NNE,14,8.1,8.1,58,0.00,CLR,,0.00,WeatherDisplay:10.37,2013-06-13 05:38:00,
2013-06-12 23:43:00,60.9,46.0,29.72,North,1,3.5,3.5,58,0.00,CLR,,0.00,WeatherDisplay:10.37,2013-06-13 05:43:00,
2013-06-12 23:48:00,60.5,46.1,29.72,North,2,3.5,3.5,59,0.00,CLR,,0.00,WeatherDisplay:10.37,2013-06-13 05:48:00,
2013-06-12 23:53:00,60.4,46.4,29.72,ENE,59,5.8,5.8,60,0.00,CLR,,0.00,WeatherDisplay:10.37,2013-06-13 05:53:00,
2013-06-12 23:58:00,60.1,46.6,29.72,NE,46,3.5,3.5,61,0.00,CLR,,0.00,WeatherDisplay:10.37,2013-06-13 05:58:00,